createdAt,value
2022-09-06T00:02:13.164Z,18.68
2022-09-06T00:04:41.036Z,18.70
2022-09-06T00:07:08.842Z,18.60
2022-09-06T00:09:36.645Z,18.48
2022-09-06T00:12:04.788Z,18.42
2022-09-06T00:14:32.649Z,18.44
2022-09-06T00:17:00.477Z,18.51
2022-09-06T00:19:29.653Z,18.54
2022-09-06T00:21:57.491Z,18.65
2022-09-06T00:24:25.485Z,18.74
2022-09-06T00:26:53.295Z,18.83
2022-09-06T00:29:21.169Z,18.82
2022-09-06T00:31:48.997Z,18.71
2022-09-06T00:34:16.870Z,18.68
2022-09-06T00:36:46.014Z,18.61
2022-09-06T00:39:13.845Z,18.54
2022-09-06T00:41:41.820Z,18.48
2022-09-06T00:44:09.634Z,18.45
2022-09-06T00:46:40.787Z,18.39
2022-09-06T00:49:12.135Z,18.13
2022-09-06T00:51:41.238Z,18.14
2022-09-06T00:54:10.887Z,18.07
2022-09-06T00:56:43.140Z,18.07
2022-09-06T00:59:11.314Z,17.93
2022-09-06T01:01:39.367Z,17.84
2022-09-06T01:04:07.838Z,17.63
2022-09-06T01:06:45.868Z,17.64
2022-09-06T01:09:25.432Z,17.60
2022-09-06T01:12:05.820Z,17.60
2022-09-06T01:14:45.740Z,17.61
2022-09-06T01:17:22.837Z,17.62
2022-09-06T01:20:19.203Z,17.61
2022-09-06T01:23:13.632Z,17.65
2022-09-06T01:25:59.908Z,17.63
2022-09-06T01:28:34.253Z,17.60
2022-09-06T01:31:25.350Z,17.60
2022-09-06T01:34:12.255Z,17.62
2022-09-06T01:37:08.585Z,17.68
2022-09-06T01:39:37.109Z,17.84
2022-09-06T01:42:09.010Z,17.93
2022-09-06T01:44:42.170Z,17.92
2022-09-06T01:47:21.037Z,17.86
2022-09-06T01:50:01.613Z,17.92
2022-09-06T01:52:36.768Z,17.87
2022-09-06T01:55:17.829Z,17.81
2022-09-06T01:58:09.735Z,17.85
2022-09-06T02:00:47.709Z,17.92
2022-09-06T02:03:26.037Z,18.01
2022-09-06T02:05:59.159Z,17.90
2022-09-06T02:08:32.423Z,17.85
2022-09-06T02:11:02.875Z,17.77
2022-09-06T02:13:34.380Z,17.77
2022-09-06T02:16:05.992Z,17.69
2022-09-06T02:18:40.349Z,17.60
2022-09-06T02:21:11.358Z,17.55
2022-09-06T02:23:41.339Z,17.46
2022-09-06T02:26:13.953Z,17.41
2022-09-06T02:28:41.962Z,17.33
2022-09-06T02:31:16.087Z,17.24
2022-09-06T02:33:47.089Z,17.13
2022-09-06T02:36:15.803Z,17.14
2022-09-06T02:38:45.089Z,17.15
2022-09-06T02:41:15.172Z,17.25
2022-09-06T02:43:43.977Z,17.23
2022-09-06T02:46:13.703Z,17.21
2022-09-06T02:48:41.665Z,17.20
2022-09-06T02:51:10.730Z,17.13
2022-09-06T02:53:39.411Z,17.18
2022-09-06T02:56:07.724Z,17.18
2022-09-06T02:58:35.996Z,17.40
2022-09-06T03:01:04.028Z,17.58
2022-09-06T03:03:33.318Z,17.71
2022-09-06T03:06:01.201Z,17.76
2022-09-06T03:08:33.365Z,17.77
2022-09-06T03:11:02.147Z,17.78
2022-09-06T03:13:30.032Z,17.81
2022-09-06T03:15:59.832Z,17.88
2022-09-06T03:18:29.624Z,17.90
2022-09-06T03:20:59.543Z,17.93
2022-09-06T03:23:29.451Z,17.92
2022-09-06T03:25:57.909Z,17.88
2022-09-06T03:28:25.962Z,17.84
2022-09-06T03:30:54.240Z,17.81
2022-09-06T03:33:22.718Z,17.63
2022-09-06T03:35:52.033Z,17.68
2022-09-06T03:38:21.897Z,17.56
2022-09-06T03:40:50.288Z,17.39
2022-09-06T03:43:18.827Z,17.24
2022-09-06T03:45:47.766Z,17.23
2022-09-06T03:48:16.542Z,17.31
2022-09-06T03:50:46.917Z,17.34
2022-09-06T03:53:15.824Z,17.38
2022-09-06T03:55:47.339Z,17.47
2022-09-06T03:58:15.413Z,17.40
2022-09-06T04:00:43.437Z,17.20
2022-09-06T04:03:11.763Z,17.04
2022-09-06T04:05:39.656Z,16.94
2022-09-06T04:08:07.785Z,17.02
2022-09-06T04:10:35.597Z,17.13
2022-09-06T04:13:04.880Z,17.23
2022-09-06T04:15:32.799Z,17.23
2022-09-06T04:18:00.735Z,17.12
2022-09-06T04:20:28.565Z,16.97
2022-09-06T04:22:56.430Z,16.94
2022-09-06T04:25:24.298Z,17.01
2022-09-06T04:27:52.154Z,17.09
2022-09-06T04:30:21.364Z,17.17
2022-09-06T04:32:49.227Z,17.24
2022-09-06T04:35:17.189Z,17.29
2022-09-06T04:37:45.106Z,17.25
2022-09-06T04:40:13.443Z,17.11
2022-09-06T04:42:41.357Z,17.01
2022-09-06T04:45:10.417Z,16.99
2022-09-06T04:47:39.865Z,16.98
2022-09-06T04:50:08.810Z,17.03
2022-09-06T04:52:36.697Z,17.03
2022-09-06T04:55:05.379Z,17.03
2022-09-06T04:57:33.353Z,17.13
2022-09-06T05:00:01.346Z,17.13
2022-09-06T05:02:29.501Z,17.15
2022-09-06T05:04:58.909Z,17.24
2022-09-06T05:07:27.460Z,17.30
2022-09-06T05:09:55.433Z,17.37
2022-09-06T05:12:23.399Z,17.49
2022-09-06T05:14:51.364Z,17.55
2022-09-06T05:17:19.247Z,17.60
2022-09-06T05:19:47.856Z,17.74
2022-09-06T05:22:17.122Z,17.83
2022-09-06T05:24:46.365Z,17.88
2022-09-06T05:27:14.332Z,17.89
2022-09-06T05:29:42.210Z,17.80
2022-09-06T05:32:10.155Z,17.79
2022-09-06T05:34:38.036Z,17.84
2022-09-06T05:37:06.092Z,17.87
2022-09-06T05:39:35.492Z,17.89
2022-09-06T05:42:06.646Z,17.86
2022-09-06T05:44:34.937Z,17.84
2022-09-06T05:47:02.939Z,17.74
2022-09-06T05:49:31.260Z,17.79
2022-09-06T05:51:59.389Z,17.80
2022-09-06T05:54:27.278Z,17.90
2022-09-06T05:56:56.426Z,17.95
2022-09-06T05:59:24.308Z,17.96
2022-09-06T06:01:54.012Z,18.06
2022-09-06T06:04:23.017Z,18.11
2022-09-06T06:06:51.215Z,18.11
2022-09-06T06:09:19.161Z,18.15
2022-09-06T06:11:46.992Z,18.15
2022-09-06T06:14:16.172Z,18.14
2022-09-06T06:16:44.111Z,18.26
2022-09-06T06:19:11.985Z,18.33
2022-09-06T06:21:39.816Z,18.36
2022-09-06T06:24:07.956Z,18.48
2022-09-06T06:26:37.241Z,18.58
2022-09-06T06:29:08.193Z,18.65
2022-09-06T06:31:39.152Z,18.68
2022-09-06T06:34:07.313Z,18.78
2022-09-06T06:36:36.621Z,18.89
2022-09-06T06:39:08.363Z,19.01
2022-09-06T06:41:36.485Z,19.08
2022-09-06T06:44:06.089Z,19.16
2022-09-06T06:46:35.660Z,19.23
2022-09-06T06:49:05.296Z,19.22
2022-09-06T06:51:37.031Z,19.29
2022-09-06T06:54:05.358Z,19.35
2022-09-06T06:56:35.005Z,19.44
2022-09-06T06:59:05.138Z,19.46
2022-09-06T07:01:34.162Z,19.78
2022-09-06T07:04:02.208Z,19.97
2022-09-06T07:09:21.441Z,20.47
2022-09-06T07:11:50.024Z,20.64
2022-09-06T07:14:18.343Z,20.77
2022-09-06T07:16:46.937Z,20.79
2022-09-06T07:22:05.763Z,20.77
2022-09-06T07:24:34.247Z,20.85
2022-09-06T07:29:49.894Z,21.04
2022-09-06T07:32:17.712Z,21.11
2022-09-06T07:34:45.549Z,21.15
2022-09-06T07:37:14.730Z,21.23
2022-09-06T07:39:42.679Z,21.33
2022-09-06T07:42:10.632Z,21.47
2022-09-06T07:44:38.459Z,21.67
2022-09-06T07:55:34.033Z,21.93
2022-09-06T07:58:01.873Z,21.89
2022-09-06T08:00:29.823Z,21.85
2022-09-06T08:02:57.679Z,21.89
2022-09-06T08:11:02.593Z,22.00
2022-09-06T08:13:30.515Z,21.97
2022-09-06T08:16:01.625Z,21.85
2022-09-06T08:18:29.573Z,21.91
2022-09-06T08:20:57.393Z,21.86
2022-09-06T08:23:26.533Z,21.78
2022-09-06T08:25:58.504Z,21.74
2022-09-06T08:28:28.798Z,21.69
2022-09-06T08:30:57.171Z,21.64
2022-09-06T08:33:25.637Z,21.59
2022-09-06T08:35:57.236Z,21.54
2022-09-06T08:38:26.670Z,21.54
2022-09-06T08:40:56.167Z,21.52
2022-09-06T08:43:24.178Z,21.41
2022-09-06T08:45:57.342Z,21.50
2022-09-06T08:48:30.407Z,21.48
2022-09-06T08:51:11.903Z,21.53
2022-09-06T08:53:46.416Z,21.55
2022-09-06T08:56:21.135Z,21.56
2022-09-06T08:59:03.933Z,21.61
2022-09-06T09:01:38.994Z,21.69
2022-09-06T09:04:12.663Z,21.73
2022-09-06T09:06:40.506Z,21.85
2022-09-06T09:09:15.939Z,21.85
2022-09-06T09:11:48.185Z,21.82
2022-09-06T09:14:19.909Z,21.81
2022-09-06T09:16:51.376Z,21.66
2022-09-06T09:19:19.229Z,21.53
2022-09-06T09:21:47.273Z,21.43
2022-09-06T09:24:16.921Z,21.29
2022-09-06T09:26:52.102Z,21.38
2022-09-06T09:29:25.367Z,21.26
2022-09-06T09:31:56.460Z,21.21
2022-09-06T09:34:33.597Z,21.14
2022-09-06T09:40:13.843Z,20.87
2022-09-06T09:42:42.003Z,20.65
2022-09-06T09:45:25.349Z,20.25
2022-09-06T09:47:53.462Z,19.82
2022-09-06T09:50:27.991Z,19.36
2022-09-06T09:52:56.368Z,19.03
2022-09-06T09:55:27.352Z,18.68
2022-09-06T09:57:56.254Z,18.29
2022-09-06T10:00:35.910Z,17.96
2022-09-06T10:03:13.245Z,17.78
2022-09-06T10:05:42.444Z,17.69
2022-09-06T10:08:13.319Z,17.64
2022-09-06T10:10:47.471Z,17.83
2022-09-06T10:13:20.194Z,17.99
2022-09-06T10:15:49.856Z,18.14
2022-09-06T10:18:30.709Z,18.29
2022-09-06T10:21:01.901Z,18.45
2022-09-06T10:26:36.272Z,18.70
2022-09-06T10:29:07.037Z,18.86
2022-09-06T10:31:53.205Z,19.03
2022-09-06T10:34:55.762Z,19.17
2022-09-06T10:37:41.537Z,19.32
2022-09-06T10:40:11.898Z,19.38
2022-09-06T10:42:46.860Z,19.31
2022-09-06T10:45:28.374Z,19.33
2022-09-06T10:47:59.505Z,19.38
2022-09-06T10:50:35.536Z,19.41
2022-09-06T10:53:11.582Z,19.52
2022-09-06T10:55:41.200Z,19.58
2022-09-06T11:00:46.722Z,19.79
2022-09-06T11:06:13.936Z,20.34
2022-09-06T11:08:48.084Z,20.50
2022-09-06T11:11:23.178Z,20.62
2022-09-06T11:13:52.365Z,20.72
2022-09-06T11:16:25.774Z,20.80
2022-09-06T11:18:58.960Z,20.86
2022-09-06T11:22:14.413Z,20.95
2022-09-06T11:24:57.481Z,21.15
2022-09-06T11:27:35.753Z,21.30
2022-09-06T11:30:06.843Z,21.43
2022-09-06T11:32:40.064Z,21.44
2022-09-06T11:35:11.192Z,21.30
2022-09-06T11:37:42.871Z,21.18
2022-09-06T11:43:45.407Z,21.05
2022-09-06T11:46:58.607Z,21.14
2022-09-06T11:49:31.780Z,21.19
2022-09-06T11:51:59.873Z,21.04
2022-09-06T11:54:39.178Z,20.85
2022-09-06T11:57:15.364Z,20.80
2022-09-06T11:59:54.961Z,20.78
2022-09-06T12:02:38.990Z,20.81
2022-09-06T12:05:29.263Z,20.70
2022-09-06T12:08:29.084Z,20.55
2022-09-06T12:11:03.029Z,20.47
2022-09-06T12:13:42.668Z,20.41
2022-09-06T12:16:12.212Z,20.42
2022-09-06T12:19:01.461Z,20.61
2022-09-06T12:21:52.341Z,20.65
2022-09-06T12:24:55.903Z,20.57
2022-09-06T12:27:25.345Z,20.45
2022-09-06T12:29:58.035Z,20.31
2022-09-06T12:32:36.200Z,20.24
2022-09-06T12:38:03.751Z,20.20
2022-09-06T12:40:35.213Z,20.16
2022-09-06T12:43:04.774Z,20.16
2022-09-06T12:45:32.909Z,20.09
2022-09-06T12:48:09.807Z,20.13
2022-09-06T12:50:40.412Z,20.02
2022-09-06T12:53:24.381Z,20.02
2022-09-06T12:56:04.342Z,19.89
2022-09-06T12:58:32.504Z,19.87
2022-09-06T13:01:10.173Z,19.79
2022-09-06T13:03:42.269Z,19.76
2022-09-06T13:06:19.627Z,19.67
2022-09-06T13:08:51.576Z,19.67
2022-09-06T13:11:25.228Z,19.70
2022-09-06T13:13:54.865Z,19.64
2022-09-06T13:16:24.632Z,19.65
2022-09-06T13:18:52.689Z,19.58
2022-09-06T13:21:32.755Z,19.63
2022-09-06T13:24:03.917Z,19.66
2022-09-06T13:26:37.465Z,19.66
2022-09-06T13:29:23.273Z,19.77
2022-09-06T13:31:53.327Z,19.83
2022-09-06T13:34:23.151Z,19.79
2022-09-06T13:36:54.305Z,19.70
2022-09-06T13:39:35.867Z,19.66
2022-09-06T13:42:07.499Z,19.66
2022-09-06T13:44:36.363Z,19.69
2022-09-06T13:47:04.725Z,19.82
2022-09-06T13:49:33.769Z,19.98
2022-09-06T13:52:05.337Z,20.15
2022-09-06T13:54:33.895Z,20.17
2022-09-06T13:57:01.925Z,20.38
2022-09-06T13:59:31.452Z,20.53
2022-09-06T14:02:03.543Z,20.80
2022-09-06T14:04:31.914Z,21.40
2022-09-06T14:07:00.182Z,21.70
2022-09-06T14:09:29.746Z,21.84
2022-09-06T14:12:34.566Z,21.90
2022-09-06T14:15:02.754Z,21.89
2022-09-06T14:17:30.754Z,21.74
2022-09-06T14:19:58.702Z,21.31
2022-09-06T14:22:26.600Z,21.02
2022-09-06T14:24:55.840Z,20.84
2022-09-06T14:27:23.790Z,20.84
2022-09-06T14:29:51.806Z,20.71
2022-09-06T14:32:22.568Z,20.52
2022-09-06T14:34:50.643Z,20.52
2022-09-06T14:37:18.580Z,20.66
2022-09-06T14:40:27.127Z,20.79
2022-09-06T14:42:57.958Z,20.86
2022-09-06T14:45:25.876Z,20.98
2022-09-06T14:47:53.832Z,21.09
2022-09-06T14:50:21.748Z,21.22
2022-09-06T14:52:49.728Z,21.43
2022-09-06T14:55:17.706Z,21.67
2022-09-06T14:57:45.936Z,21.83
2022-09-06T15:00:16.109Z,22.08
2022-09-06T15:02:44.478Z,22.33
2022-09-06T15:05:12.421Z,22.45
2022-09-06T15:07:40.317Z,22.43
2022-09-06T15:10:08.753Z,22.32
2022-09-06T15:12:37.371Z,22.18
2022-09-06T15:15:06.340Z,22.05
2022-09-06T15:17:36.626Z,21.87
2022-09-06T15:20:05.838Z,21.79
2022-09-06T15:22:33.801Z,21.75
2022-09-06T15:25:01.723Z,21.70
2022-09-06T15:27:30.104Z,21.67
2022-09-06T15:29:57.972Z,21.65
2022-09-06T15:32:25.885Z,21.64
2022-09-06T15:34:55.194Z,21.62
2022-09-06T15:37:23.156Z,21.57
2022-09-06T15:39:51.104Z,21.47
2022-09-06T15:42:19.066Z,21.38
2022-09-06T15:44:46.944Z,21.33
2022-09-06T15:47:14.918Z,21.26
2022-09-06T15:49:43.006Z,21.24
2022-09-06T15:52:12.431Z,21.24
2022-09-06T15:54:57.985Z,21.20
2022-09-06T15:57:26.031Z,21.21
2022-09-06T15:59:53.956Z,21.14
2022-09-06T16:02:22.010Z,21.11
2022-09-06T16:04:50.018Z,21.04
2022-09-06T16:07:19.563Z,20.98
2022-09-06T16:09:47.467Z,20.94
2022-09-06T16:12:15.412Z,20.93
2022-09-06T16:14:43.329Z,20.90
2022-09-06T16:17:12.299Z,20.89
2022-09-06T16:19:40.841Z,20.86
2022-09-06T16:22:08.712Z,20.84
2022-09-06T16:24:39.138Z,20.84
2022-09-06T16:27:07.154Z,20.88
2022-09-06T16:29:36.180Z,20.90
2022-09-06T16:32:04.560Z,20.89
2022-09-06T16:34:32.480Z,20.89
2022-09-06T16:37:00.618Z,20.89
2022-09-06T16:39:28.520Z,20.89
2022-09-06T16:41:57.775Z,20.90
2022-09-06T16:44:26.117Z,20.87
2022-09-06T16:46:55.952Z,20.85
2022-09-06T16:49:24.434Z,20.81
2022-09-06T16:51:52.436Z,20.78
2022-09-06T16:54:21.872Z,20.78
2022-09-06T16:56:49.767Z,20.79
2022-09-06T16:59:19.178Z,20.79
2022-09-06T17:01:47.403Z,20.81
2022-09-06T17:04:15.885Z,20.82
2022-09-06T17:06:45.613Z,20.82
2022-09-06T17:09:14.997Z,20.78
2022-09-06T17:11:43.075Z,20.72
2022-09-06T17:14:11.052Z,20.65
2022-09-06T17:16:57.969Z,20.61
2022-09-06T17:19:26.493Z,20.53
2022-09-06T17:21:54.396Z,20.45
2022-09-06T17:24:22.567Z,20.34
2022-09-06T17:26:50.721Z,20.22
2022-09-06T17:29:18.744Z,20.19
2022-09-06T17:31:49.522Z,20.12
2022-09-06T17:34:17.796Z,20.00
2022-09-06T17:36:45.877Z,19.90
2022-09-06T17:39:15.866Z,19.78
2022-09-06T17:41:46.749Z,19.68
2022-09-06T17:44:16.913Z,19.60
2022-09-06T17:47:02.831Z,19.54
2022-09-06T17:49:34.979Z,19.51
2022-09-06T17:52:03.244Z,19.49
2022-09-06T17:54:31.736Z,19.48
2022-09-06T17:56:59.708Z,19.47
2022-09-06T17:59:31.588Z,19.45
2022-09-06T18:02:02.293Z,19.46
2022-09-06T18:04:30.227Z,19.49
2022-09-06T18:06:59.559Z,19.49
2022-09-06T18:09:27.503Z,19.46
2022-09-06T18:11:55.462Z,19.45
2022-09-06T18:14:23.386Z,19.42
2022-09-06T18:16:52.982Z,19.36
2022-09-06T18:19:22.274Z,19.33
2022-09-06T18:21:50.817Z,19.29
2022-09-06T18:24:20.268Z,19.27
2022-09-06T18:26:49.062Z,19.28
2022-09-06T18:29:18.388Z,19.25
2022-09-06T18:31:46.384Z,19.22
2022-09-06T18:34:15.933Z,19.08
2022-09-06T18:36:43.958Z,19.00
2022-09-06T18:39:13.143Z,18.89
2022-09-06T18:41:59.717Z,18.79
2022-09-06T18:44:31.884Z,18.69
2022-09-06T18:47:01.994Z,18.65
2022-09-06T18:49:30.772Z,18.65
2022-09-06T18:51:58.816Z,18.72
2022-09-06T18:54:26.738Z,18.75
2022-09-06T18:56:56.060Z,18.79
2022-09-06T18:59:24.050Z,18.82
2022-09-06T19:01:52.136Z,18.83
2022-09-06T19:04:20.873Z,18.79
2022-09-06T19:06:48.811Z,18.81
2022-09-06T19:09:17.887Z,18.84
2022-09-06T19:11:49.268Z,18.84
2022-09-06T19:14:19.442Z,18.89
2022-09-06T19:16:48.610Z,18.87
2022-09-06T19:19:16.601Z,18.81
2022-09-06T19:21:44.521Z,18.75
2022-09-06T19:24:14.554Z,18.71
2022-09-06T19:26:43.927Z,18.65
2022-09-06T19:29:14.507Z,18.64
2022-09-06T19:31:44.710Z,18.50
2022-09-06T19:34:15.211Z,18.55
2022-09-06T19:36:44.429Z,18.51
2022-09-06T19:39:15.316Z,18.39
2022-09-06T19:41:45.093Z,18.29
2022-09-06T19:44:14.283Z,18.27
2022-09-06T19:46:46.229Z,18.23
2022-09-06T19:49:15.568Z,18.21
2022-09-06T19:51:45.168Z,18.16
2022-09-06T19:54:15.304Z,18.06
2022-09-06T19:56:44.697Z,18.04
2022-09-06T19:59:13.886Z,17.93
2022-09-06T20:01:44.793Z,17.95
2022-09-06T20:04:14.436Z,17.85
2022-09-06T20:06:42.709Z,17.74
2022-09-06T20:09:11.595Z,17.62
2022-09-06T20:11:42.125Z,17.52
2022-09-06T20:14:11.034Z,17.46
2022-09-06T20:16:41.813Z,17.50
2022-09-06T20:19:13.074Z,17.62
2022-09-06T20:21:40.970Z,17.76
2022-09-06T20:24:09.010Z,17.87
2022-09-06T20:26:37.670Z,17.89
2022-09-06T20:29:06.746Z,17.91
2022-09-06T20:31:36.469Z,17.89
2022-09-06T20:34:05.661Z,17.80
2022-09-06T20:36:34.966Z,17.71
2022-09-06T20:39:03.171Z,17.72
2022-09-06T20:41:31.085Z,17.76
2022-09-06T20:44:00.371Z,17.79
2022-09-06T20:46:29.872Z,17.81
2022-09-06T20:48:59.763Z,17.87
2022-09-06T20:51:27.688Z,17.93
2022-09-06T20:53:58.170Z,17.95
2022-09-06T20:56:28.017Z,17.99
2022-09-06T20:58:57.430Z,18.01
2022-09-06T21:01:27.226Z,18.01
2022-09-06T21:03:56.936Z,17.99
2022-09-06T21:06:26.191Z,17.98
2022-09-06T21:08:54.434Z,18.00
2022-09-06T21:11:24.307Z,17.99
2022-09-06T21:13:53.786Z,17.99
2022-09-06T21:16:24.756Z,17.98
2022-09-06T21:18:53.693Z,17.96
2022-09-06T21:21:22.227Z,17.92
2022-09-06T21:23:50.445Z,17.90
2022-09-06T21:26:18.925Z,17.88
2022-09-06T21:28:48.677Z,17.77
2022-09-06T21:31:18.662Z,17.58
2022-09-06T21:33:48.194Z,17.30
2022-09-06T21:36:19.173Z,17.28
2022-09-06T21:38:48.474Z,17.22
2022-09-06T21:41:18.163Z,17.20
2022-09-06T21:43:48.276Z,17.22
2022-09-06T21:46:18.657Z,17.28
2022-09-06T21:48:48.153Z,17.33
2022-09-06T21:51:18.446Z,17.42
2022-09-06T21:53:49.269Z,17.52
2022-09-06T21:56:19.562Z,17.58
2022-09-06T21:58:51.343Z,17.60
2022-09-06T22:01:19.934Z,17.61
2022-09-06T22:03:48.221Z,17.55
2022-09-06T22:06:19.062Z,17.47
2022-09-06T22:08:47.660Z,17.28
2022-09-06T22:11:17.908Z,17.16
2022-09-06T22:13:46.732Z,17.13
2022-09-06T22:16:17.926Z,17.08
2022-09-06T22:18:46.705Z,17.15
2022-09-06T22:21:18.486Z,17.25
2022-09-06T22:23:50.941Z,17.28
2022-09-06T22:26:20.252Z,17.21
2022-09-06T22:28:48.554Z,17.21
2022-09-06T22:31:18.010Z,16.87
2022-09-06T22:33:45.970Z,16.85
2022-09-06T22:36:13.913Z,16.70
2022-09-06T22:38:41.864Z,16.65
2022-09-06T22:41:10.075Z,16.62
2022-09-06T22:43:38.133Z,16.60
2022-09-06T22:46:07.285Z,16.71
2022-09-06T22:48:37.143Z,16.81
2022-09-06T22:51:06.220Z,16.80
2022-09-06T22:53:34.985Z,16.82
2022-09-06T22:56:03.848Z,17.00
2022-09-06T22:58:31.892Z,17.06
2022-09-06T23:01:07.192Z,16.89
2022-09-06T23:03:36.758Z,16.71
2022-09-06T23:06:05.248Z,16.62
2022-09-06T23:08:34.657Z,16.58
2022-09-06T23:11:06.807Z,16.50
2022-09-06T23:13:34.837Z,16.49
2022-09-06T23:16:04.716Z,16.53
2022-09-06T23:18:32.823Z,16.58
2022-09-06T23:21:06.726Z,16.65
2022-09-06T23:23:35.336Z,16.68
2022-09-06T23:26:11.882Z,16.64
2022-09-06T23:28:40.247Z,16.71
2022-09-06T23:31:10.270Z,16.75
2022-09-06T23:33:38.377Z,16.75
2022-09-06T23:36:09.523Z,16.73
2022-09-06T23:38:39.556Z,16.80
2022-09-06T23:41:09.828Z,16.84
2022-09-06T23:43:38.190Z,16.72
2022-09-06T23:46:06.133Z,16.64
2022-09-06T23:48:34.174Z,16.66
2022-09-06T23:51:02.346Z,16.68
2022-09-06T23:53:31.841Z,16.72
2022-09-06T23:56:00.105Z,16.78
2022-09-06T23:58:28.513Z,16.88
